»·PEaware :: SWA671 KSLC-KLAX

SWA671 :: KSLC-KLAX

FLIGHT INFORMATION

Flight Status: Arrived
Operator:
Southwest Airlines
More flights by this operator :: More flights under this callsign
Pilot: Maximilliano F. (23467)
Aircraft: BOEING 737-800
(B738)
More flights by this aircraft type
Origin: KSLC Salt Lake City Intl
United States
Destination: KLAX Los Angeles Intl
United States
More flights between these airports :: More routes between these airports
Route: +ZIONZ1 EHK LAKRR Q88 HAKMN ANJLL4
File this flight plan on PilotEdge
Remarks: RMK / SIMBRIEF
Altitude:
(Current/Filed)
34,000ft
Speed:
(Current/Filed)
456kts
Departed: 11-Oct-19 01:44 PM
Arrived: 11-Oct-19 03:13 PM
Distance/Time
Traveled:
512nm/1:29
Distance/Time
To Go:
Arrived

Flight Plot

Page will automatically refresh every two minutes.

Flight plan parsing failed; only flown route is shown


Map Options




Map Legend


Flown Route
Filed Route
Departure Airport
Arrival Airport
Navaid (VOR, NDB)
Fix

Horizontal Profiles

Position Reports

Time Latitude Longitude Heading Altitude Ground
Speed
11-Oct-19 13:00 40.788845 -111.977796 257 4235ft 0kts
11-Oct-19 13:01 40.788845 -111.977796 257 4235ft 0kts
11-Oct-19 13:02 40.788845 -111.977796 257 4235ft 0kts
11-Oct-19 13:03 40.788845 -111.977796 257 4235ft 0kts
11-Oct-19 13:04 40.788845 -111.977796 257 4235ft 0kts
11-Oct-19 13:05 40.788845 -111.977796 257 4235ft 0kts
11-Oct-19 13:06 40.788845 -111.977796 257 4235ft 0kts
11-Oct-19 13:07 40.788845 -111.977796 257 4235ft 0kts
11-Oct-19 13:08 40.788845 -111.977796 257 4235ft 0kts
11-Oct-19 13:09 40.788845 -111.977796 257 4235ft 0kts
11-Oct-19 13:10 40.788845 -111.977796 257 4235ft 0kts
11-Oct-19 13:11 40.788845 -111.977796 257 4235ft 0kts
11-Oct-19 13:12 40.788845 -111.977796 257 4235ft 0kts
11-Oct-19 13:13 40.788845 -111.977796 257 4235ft 0kts
11-Oct-19 13:14 40.788845 -111.977796 257 4235ft 0kts
11-Oct-19 13:15 40.788845 -111.977796 257 4235ft 0kts
11-Oct-19 13:16 40.788845 -111.977796 257 4235ft 0kts
11-Oct-19 13:17 40.788845 -111.977795 257 4235ft 0kts
11-Oct-19 13:18 40.788845 -111.977795 257 4235ft 0kts
11-Oct-19 13:19 40.788845 -111.977795 257 4235ft 0kts
11-Oct-19 13:20 40.788845 -111.977795 257 4235ft 0kts
11-Oct-19 13:21 40.788845 -111.977795 257 4235ft 0kts
11-Oct-19 13:22 40.788845 -111.977795 257 4235ft 0kts
11-Oct-19 13:23 40.788845 -111.977795 257 4235ft 0kts
11-Oct-19 13:24 40.788845 -111.977795 257 4235ft 0kts
11-Oct-19 13:25 40.788845 -111.977795 257 4235ft 0kts
11-Oct-19 13:26 40.788845 -111.977795 257 4235ft 0kts
11-Oct-19 13:27 40.788845 -111.977795 257 4235ft 0kts
11-Oct-19 13:28 40.788845 -111.977795 257 4235ft 0kts
11-Oct-19 13:29 40.788845 -111.977795 257 4235ft 0kts
11-Oct-19 13:30 40.788845 -111.977795 257 4235ft 0kts
11-Oct-19 13:31 40.788860 -111.977710 269 4235ft 2kts
11-Oct-19 13:32 40.788560 -111.977307 359 4235ft 0kts
11-Oct-19 13:33 40.788560 -111.977307 359 4235ft 0kts
11-Oct-19 13:34 40.788560 -111.977307 359 4235ft 0kts
11-Oct-19 13:35 40.788687 -111.977308 359 4235ft 0kts
11-Oct-19 13:36 40.790216 -111.977113 356 4234ft 22kts
11-Oct-19 13:37 40.797136 -111.977911 354 4235ft 23kts
11-Oct-19 13:38 40.802922 -111.978364 9 4235ft 18kts
11-Oct-19 13:39 40.807120 -111.978498 24 4234ft 0kts
11-Oct-19 13:40 40.807120 -111.978498 24 4234ft 0kts
11-Oct-19 13:41 40.807120 -111.978498 24 4234ft 0kts
11-Oct-19 13:42 40.807395 -111.978197 58 4235ft 6kts
11-Oct-19 13:43 40.803773 -111.976511 174 4234ft 76kts
11-Oct-19 13:44 40.757158 -111.970931 172 5684ft 199kts
11-Oct-19 13:45 40.692807 -111.960455 176 8219ft 247kts
11-Oct-19 13:46 40.620966 -111.956521 179 9967ft 261kts
11-Oct-19 13:47 40.548432 -111.954619 179 12540ft 276kts
11-Oct-19 13:48 40.461196 -111.948518 181 14561ft 337kts
11-Oct-19 13:49 40.363217 -111.946409 180 17328ft 370kts
11-Oct-19 13:50 40.258782 -111.937967 185 20382ft 385kts
11-Oct-19 13:51 40.151996 -111.957454 190 23214ft 398kts
11-Oct-19 13:52 40.040470 -111.973592 190 25906ft 409kts
11-Oct-19 13:53 39.925583 -111.989680 189 28287ft 422kts
11-Oct-19 13:54 39.807450 -112.007837 190 30264ft 438kts
11-Oct-19 13:55 39.684933 -112.025347 190 32411ft 447kts
11-Oct-19 13:56 39.561939 -112.043286 191 34343ft 451kts
11-Oct-19 13:57 39.437991 -112.061143 191 34356ft 447kts
11-Oct-19 13:58 39.314316 -112.078668 191 34356ft 447kts
11-Oct-19 13:59 39.191225 -112.096101 191 34356ft 446kts
11-Oct-19 14:00 39.077450 -112.145863 213 34357ft 430kts
11-Oct-19 14:01 38.973476 -112.221451 214 34352ft 428kts
11-Oct-19 14:02 38.869777 -112.296833 214 34345ft 427kts
11-Oct-19 14:03 38.766325 -112.371783 214 34344ft 427kts
11-Oct-19 14:04 38.663411 -112.446091 214 34343ft 425kts
11-Oct-19 14:05 38.560371 -112.520251 214 34343ft 426kts
11-Oct-19 14:06 38.457376 -112.594126 214 34342ft 425kts
11-Oct-19 14:07 38.354314 -112.667799 213 34349ft 426kts
11-Oct-19 14:08 38.250890 -112.741470 213 34349ft 426kts
11-Oct-19 14:09 38.147574 -112.814846 213 34348ft 426kts
11-Oct-19 14:10 38.044114 -112.888096 213 34340ft 427kts
11-Oct-19 14:11 37.941259 -112.960648 213 34330ft 422kts
11-Oct-19 14:12 37.838156 -113.033190 213 34323ft 424kts
11-Oct-19 14:13 37.735550 -113.106174 214 34319ft 424kts
11-Oct-19 14:14 37.633839 -113.180763 214 34318ft 424kts
11-Oct-19 14:15 37.531970 -113.255146 214 34318ft 423kts
11-Oct-19 14:16 37.429789 -113.329524 214 34317ft 424kts
11-Oct-19 14:17 37.328014 -113.403371 214 34316ft 424kts
11-Oct-19 14:18 37.226022 -113.477139 214 34300ft 423kts
11-Oct-19 14:19 37.124363 -113.550434 214 34258ft 423kts
11-Oct-19 14:20 37.022639 -113.623549 214 34250ft 422kts
11-Oct-19 14:21 36.921550 -113.695954 213 34257ft 422kts
11-Oct-19 14:22 36.820570 -113.768073 213 34258ft 420kts
11-Oct-19 14:23 36.718942 -113.840453 213 34257ft 420kts
11-Oct-19 14:24 36.618053 -113.912083 213 34257ft 419kts
11-Oct-19 14:25 36.516711 -113.983814 213 34233ft 418kts
11-Oct-19 14:27 36.415920 -114.054938 213 34225ft 419kts
11-Oct-19 14:28 36.314590 -114.126231 213 34205ft 418kts
11-Oct-19 14:29 36.213866 -114.196869 213 34185ft 417kts
11-Oct-19 14:30 36.112951 -114.267581 215 34170ft 416kts
11-Oct-19 14:31 36.029400 -114.363401 230 34169ft 411kts
11-Oct-19 14:32 35.953827 -114.468447 230 34168ft 408kts
11-Oct-19 14:33 35.878528 -114.572423 230 34169ft 409kts
11-Oct-19 14:34 35.803112 -114.676216 230 34176ft 408kts
11-Oct-19 14:35 35.727429 -114.780039 230 34176ft 408kts
11-Oct-19 14:36 35.651430 -114.883952 229 34175ft 408kts
11-Oct-19 14:37 35.575845 -114.987103 230 34175ft 408kts
11-Oct-19 14:38 35.499878 -115.090627 229 34175ft 408kts
11-Oct-19 14:39 35.421920 -115.192151 228 34142ft 408kts
11-Oct-19 14:40 35.344126 -115.293641 228 34108ft 409kts
11-Oct-19 14:41 35.266399 -115.394706 228 34105ft 408kts
11-Oct-19 14:42 35.188753 -115.495375 228 34104ft 408kts
11-Oct-19 14:43 35.110847 -115.595933 228 34103ft 407kts
11-Oct-19 14:44 35.032895 -115.695310 228 34110ft 406kts
11-Oct-19 14:45 34.955031 -115.794665 228 34109ft 405kts
11-Oct-19 14:46 34.877129 -115.893786 228 34112ft 404kts
11-Oct-19 14:47 34.799413 -115.992377 227 34125ft 402kts
11-Oct-19 14:47 34.734733 -116.074382 227 34147ft 403kts
11-Oct-19 14:48 34.657855 -116.172280 228 34172ft 402kts
11-Oct-19 14:50 34.567892 -116.286485 227 34172ft 401kts
11-Oct-19 14:50 34.503862 -116.367531 227 34170ft 399kts
11-Oct-19 14:51 34.427910 -116.464940 233 34169ft 397kts
11-Oct-19 14:52 34.373131 -116.583040 243 32259ft 404kts
11-Oct-19 14:54 34.316371 -116.721881 243 29673ft 392kts
11-Oct-19 14:54 34.277131 -116.819692 243 27223ft 385kts
11-Oct-19 14:55 34.231087 -116.933844 243 24578ft 372kts
11-Oct-19 14:56 34.193358 -117.047803 251 21943ft 363kts
11-Oct-19 14:57 34.162393 -117.163257 250 19317ft 355kts
11-Oct-19 14:58 34.131349 -117.275973 250 16723ft 347kts
11-Oct-19 14:59 34.101170 -117.385983 251 14227ft 340kts
11-Oct-19 15:00 34.074200 -117.494630 252 12069ft 326kts
11-Oct-19 15:01 34.047496 -117.599201 251 12026ft 327kts
11-Oct-19 15:02 34.022351 -117.700466 257 10830ft 335kts
11-Oct-19 15:03 34.011518 -117.806920 261 9641ft 300kts
11-Oct-19 15:04 34.001735 -117.906903 262 7671ft 296kts
11-Oct-19 15:05 33.992105 -118.004920 262 5852ft 287kts
11-Oct-19 15:06 33.984244 -118.084341 262 4561ft 275kts
11-Oct-19 15:07 33.977348 -118.156594 263 4000ft 238kts
11-Oct-19 15:08 33.971197 -118.214476 262 3331ft 237kts
11-Oct-19 15:09 33.965104 -118.274157 263 2275ft 210kts
11-Oct-19 15:10 33.960558 -118.318950 263 1486ft 165kts
11-Oct-19 15:11 33.954891 -118.374577 265 610ft 155kts
11-Oct-19 15:12 33.949731 -118.424295 252 121ft 35kts
11-Oct-19 15:13 33.946441 -118.426024 84 116ft 10kts
11-Oct-19 15:14 33.946813 -118.422562 83 120ft 8kts
11-Oct-19 15:15 33.947435 -118.416431 83 125ft 21kts
11-Oct-19 15:16 33.948242 -118.409904 83 128ft 18kts
11-Oct-19 15:17 33.948895 -118.403531 83 123ft 20kts
11-Oct-19 15:18 33.948765 -118.399948 187 119ft 0kts
11-Oct-19 15:19 33.947968 -118.400165 243 120ft 2kts
11-Oct-19 15:20 33.946457 -118.400104 173 121ft 4kts
11-Oct-19 15:21 33.946240 -118.400056 168 121ft 0kts

Navigation Log

Ident Type
Flight plan parsing failed, navigation log unavailable